Аэропорт: Курск-Восточный . Курск

ICAO: UUOK

METAR:
2019/03/26 13:00
UUOK 261300Z 26006MPS 9999 BKN033CB 09/M02 Q1007 R30/110055 NOSIG RMK QFE737/0982
METAR:
Информация по данной станции не доступна